sensor_id;sensor_type;location;lat;lon;timestamp;P1;P4;P2;P0;N10;N4;N25;N1;N05;TS
66879;SPS30;72009;51.392;10.234;2024-01-25T00:00:01;13.41;11.68;8.54;4.35;35.29;35.10;34.29;30.03;20.03;0.91
66879;SPS30;72009;51.392;10.234;2024-01-25T00:00:21;12.75;11.10;8.08;4.07;33.08;32.89;32.12;28.04;18.56;0.92
66879;SPS30;72009;51.392;10.234;2024-01-25T00:00:42;14.46;12.59;9.18;4.65;37.75;37.54;36.67;32.05;21.29;0.91
66879;SPS30;72009;51.392;10.234;2024-01-25T00:01:02;15.17;13.24;9.74;5.05;40.97;40.75;39.86;35.09;23.73;0.89
66879;SPS30;72009;51.392;10.234;2024-01-25T00:01:22;13.14;11.53;8.61;4.67;37.83;37.64;36.89;32.91;22.93;0.86
66879;SPS30;72009;51.392;10.234;2024-01-25T00:01:43;12.07;10.61;7.95;4.36;35.35;35.18;34.50;30.87;21.68;0.86
66879;SPS30;72009;51.392;10.234;2024-01-25T00:02:03;12.38;10.87;8.12;4.43;35.88;35.71;35.01;31.27;21.87;0.86
66879;SPS30;72009;51.392;10.234;2024-01-25T00:02:23;12.88;11.30;8.44;4.58;37.10;36.92;36.19;32.29;22.52;0.87
66879;SPS30;72009;51.392;10.234;2024-01-25T00:02:44;10.88;9.55;7.14;3.88;31.45;31.30;30.68;27.39;19.12;0.85
66879;SPS30;72009;51.392;10.234;2024-01-25T00:03:04;12.21;10.71;7.99;4.33;35.06;34.89;34.20;30.49;21.23;0.87
66879;SPS30;72009;51.392;10.234;2024-01-25T00:03:24;13.85;12.10;8.92;4.67;37.89;37.69;36.88;32.56;22.16;0.89
66879;SPS30;72009;51.392;10.234;2024-01-25T00:03:45;14.46;12.62;9.28;4.82;39.12;38.92;38.07;33.53;22.70;0.89
66879;SPS30;72009;51.392;10.234;2024-01-25T00:04:05;14.92;12.99;9.50;4.84;39.27;39.06;38.17;33.42;22.31;0.91
66879;SPS30;72009;51.392;10.234;2024-01-25T00:04:25;15.90;13.84;10.08;5.08;41.26;41.03;40.07;34.98;23.16;0.92
66879;SPS30;72009;51.392;10.234;2024-01-25T00:04:45;12.95;11.25;8.16;4.06;32.96;32.77;31.98;27.79;18.21;0.93
66879;SPS30;72009;51.392;10.234;2024-01-25T00:05:06;12.37;10.74;7.77;3.83;31.14;30.96;30.20;26.18;17.04;0.93
66879;SPS30;72009;51.392;10.234;2024-01-25T00:05:26;12.46;10.80;7.77;3.76;30.59;30.41;29.64;25.54;16.38;0.94
66879;SPS30;72009;51.392;10.234;2024-01-25T00:05:47;12.77;11.06;7.95;3.84;31.24;31.05;30.25;26.05;16.67;0.94
66879;SPS30;72009;51.392;10.234;2024-01-25T00:06:08;11.46;9.93;7.15;3.46;28.18;28.01;27.30;23.53;15.10;0.94
66879;SPS30;72009;51.392;10.234;2024-01-25T00:06:28;11.81;10.24;7.38;3.58;29.16;28.98;28.25;24.38;15.68;0.94
66879;SPS30;72009;51.392;10.234;2024-01-25T00:06:48;11.56;10.04;7.26;3.58;29.13;28.96;28.25;24.49;15.95;0.93
66879;SPS30;72009;51.392;10.234;2024-01-25T00:07:09;10.82;9.42;6.87;3.47;28.20;28.05;27.39;23.94;15.89;0.92
66879;SPS30;72009;51.392;10.234;2024-01-25T00:07:29;11.36;9.90;7.25;3.72;30.17;30.00;29.33;25.73;17.25;0.91
66879;SPS30;72009;51.392;10.234;2024-01-25T00:07:49;11.64;10.17;7.50;3.93;31.88;31.71;31.03;27.41;18.66;0.89
66879;SPS30;72009;51.392;10.234;2024-01-25T00:08:10;11.32;9.89;7.30;3.83;31.03;30.87;30.20;26.68;18.18;0.90
66879;SPS30;72009;51.392;10.234;2024-01-25T00:08:31;13.24;11.55;8.47;4.35;35.34;35.15;34.36;30.18;20.29;0.91
66879;SPS30;72009;51.392;10.234;2024-01-25T00:08:51;13.75;11.98;8.77;4.48;36.34;36.14;35.32;30.95;20.70;0.91
66879;SPS30;72009;51.392;10.234;2024-01-25T00:09:11;15.20;13.25;9.69;4.95;40.21;39.99;39.08;34.26;22.92;0.91
66879;SPS30;72009;51.392;10.234;2024-01-25T00:09:32;15.80;13.77;10.09;5.17;41.93;41.70;40.76;35.76;23.96;0.91
66879;SPS30;72009;51.392;10.234;2024-01-25T00:09:52;13.23;11.54;8.47;4.36;35.39;35.20;34.41;30.24;20.35;0.90
66879;SPS30;72009;51.392;10.234;2024-01-25T00:10:13;12.51;10.90;7.96;4.05;32.86;32.68;31.93;27.95;18.63;0.92
66879;SPS30;72009;51.392;10.234;2024-01-25T00:10:33;13.89;12.10;8.85;4.51;36.61;36.41;35.58;31.16;20.80;0.91
66879;SPS30;72009;51.392;10.234;2024-01-25T00:10:54;14.48;12.64;9.29;4.81;39.06;38.85;38.00;33.45;22.61;0.91
66879;SPS30;72009;51.392;10.234;2024-01-25T00:11:14;14.91;13.02;9.60;5.02;40.74;40.52;39.65;35.00;23.81;0.91
66879;SPS30;72009;51.392;10.234;2024-01-25T00:11:34;14.44;12.59;9.22;4.72;38.35;38.14;37.28;32.70;21.92;0.92
66879;SPS30;72009;51.392;10.234;2024-01-25T00:11:54;13.40;11.67;8.52;4.32;35.09;34.90;34.09;29.82;19.85;0.92
66879;SPS30;72009;51.392;10.234;2024-01-25T00:12:15;13.38;11.66;8.54;4.38;35.55;35.35;34.56;30.32;20.34;0.91
66879;SPS30;72009;51.392;10.234;2024-01-25T00:12:35;12.56;10.96;8.04;4.14;33.57;33.39;32.64;28.68;19.29;0.91
66879;SPS30;72009;51.392;10.234;2024-01-25T00:12:55;11.15;9.73;7.16;3.72;30.19;30.04;29.38;25.88;17.53;0.90
66879;SPS30;72009;51.392;10.234;2024-01-25T00:13:16;11.66;10.19;7.51;3.93;31.91;31.74;31.06;27.42;18.67;0.89
66879;SPS30;72009;51.392;10.234;2024-01-25T00:13:36;14.01;12.24;9.02;4.71;38.24;38.04;37.22;32.85;22.33;0.88
66879;SPS30;72009;51.392;10.234;2024-01-25T00:13:56;12.76;11.17;8.27;4.38;35.54;35.36;34.62;30.68;21.06;0.87
66879;SPS30;72009;51.392;10.234;2024-01-25T00:14:17;10.90;9.55;7.09;3.79;30.74;30.59;29.96;26.61;18.38;0.86
66879;SPS30;72009;51.392;10.234;2024-01-25T00:14:37;11.87;10.40;7.73;4.15;33.62;33.46;32.78;29.15;20.17;0.86
66879;SPS30;72009;51.392;10.234;2024-01-25T00:14:58;12.09;10.61;7.90;4.27;34.59;34.42;33.73;30.05;20.88;0.84
66879;SPS30;72009;51.392;10.234;2024-01-25T00:15:18;11.81;10.37;7.75;4.23;34.28;34.12;33.45;29.89;20.91;0.84
66879;SPS30;72009;51.392;10.234;2024-01-25T00:15:38;12.54;11.05;8.33;4.66;37.71;37.54;36.85;33.15;23.54;0.82
66879;SPS30;72009;51.392;10.234;2024-01-25T00:15:58;11.95;10.53;7.94;4.44;35.95;35.79;35.13;31.60;22.45;0.84
66879;SPS30;72009;51.392;10.234;2024-01-25T00:16:19;13.23;11.62;8.71;4.78;38.71;38.53;37.78;33.81;23.74;0.85
66879;SPS30;72009;51.392;10.234;2024-01-25T00:16:42;13.12;11.51;8.60;4.67;37.87;37.69;36.94;32.97;23.01;0.85
66879;SPS30;72009;51.392;10.234;2024-01-25T00:17:03;11.92;10.49;7.88;4.37;35.34;35.18;34.51;30.96;21.86;0.85
66879;SPS30;72009;51.392;10.234;2024-01-25T00:17:23;10.83;9.52;7.15;3.95;31.97;31.82;31.21;27.98;19.72;0.85
66879;SPS30;72009;51.392;10.234;2024-01-25T00:17:43;10.78;9.48;7.11;3.92;31.72;31.58;30.97;27.74;19.52;0.85
66879;SPS30;72009;51.392;10.234;2024-01-25T00:18:04;12.49;10.98;8.24;4.55;36.83;36.66;35.96;32.23;22.70;0.86
66879;SPS30;72009;51.392;10.234;2024-01-25T00:18:24;13.79;12.13;9.11;5.04;40.82;40.63;39.86;35.75;25.22;0.86
66879;SPS30;72009;51.392;10.234;2024-01-25T00:18:44;13.96;12.32;9.33;5.28;42.68;42.50;41.73;37.65;26.92;0.85
66879;SPS30;72009;51.392;10.234;2024-01-25T00:19:04;14.61;12.89;9.75;5.51;44.54;44.35;43.54;39.26;28.03;0.86
66879;SPS30;72009;51.392;10.234;2024-01-25T00:19:25;11.16;9.85;7.47;4.24;34.30;34.15;33.54;30.29;21.70;0.85
66879;SPS30;72009;51.392;10.234;2024-01-25T00:19:45;11.04;9.75;7.39;4.21;34.02;33.87;33.27;30.06;21.55;0.86
66879;SPS30;72009;51.392;10.234;2024-01-25T00:20:06;10.64;9.39;7.12;4.04;32.70;32.55;31.97;28.87;20.68;0.85
66879;SPS30;72009;51.392;10.234;2024-01-25T00:20:29;11.47;10.13;7.69;4.38;35.45;35.30;34.67;31.34;22.50;0.86
66879;SPS30;72009;51.392;10.234;2024-01-25T00:20:49;12.35;10.89;8.25;4.66;37.74;37.58;36.90;33.29;23.79;0.85
66879;SPS30;72009;51.392;10.234;2024-01-25T00:21:09;12.42;10.98;8.34;4.77;38.56;38.39;37.72;34.12;24.53;0.83
66879;SPS30;72009;51.392;10.234;2024-01-25T00:21:30;12.15;10.74;8.17;4.69;37.89;37.73;37.07;33.56;24.18;0.83
66879;SPS30;72009;51.392;10.234;2024-01-25T00:21:50;12.88;11.37;8.61;4.87;39.39;39.21;38.51;34.74;24.83;0.85
66879;SPS30;72009;51.392;10.234;2024-01-25T00:22:10;12.24;10.77;8.09;4.48;36.30;36.13;35.45;31.80;22.46;0.86
66879;SPS30;72009;51.392;10.234;2024-01-25T00:22:30;10.17;8.95;6.72;3.71;30.05;29.91;29.34;26.30;18.54;0.85
66879;SPS30;72009;51.392;10.234;2024-01-25T00:22:51;10.82;9.54;7.22;4.07;32.94;32.80;32.20;29.03;20.71;0.83
66879;SPS30;72009;51.392;10.234;2024-01-25T00:23:11;11.48;10.16;7.76;4.50;36.37;36.22;35.61;32.33;23.43;0.80
66879;SPS30;72009;51.392;10.234;2024-01-25T00:23:32;11.10;9.82;7.51;4.36;35.23;35.08;34.49;31.32;22.72;0.81
66879;SPS30;72009;51.392;10.234;2024-01-25T00:23:53;10.43;9.22;7.01;4.01;32.41;32.27;31.70;28.68;20.63;0.82
66879;SPS30;72009;51.392;10.234;2024-01-25T00:24:13;10.96;9.67;7.33;4.16;33.66;33.52;32.92;29.72;21.29;0.82
66879;SPS30;72009;51.392;10.234;2024-01-25T00:24:33;11.29;9.93;7.47;4.14;33.55;33.40;32.77;29.41;20.79;0.84
66879;SPS30;72009;51.392;10.234;2024-01-25T00:24:54;10.21;8.98;6.73;3.71;30.01;29.87;29.29;26.23;18.45;0.84
66879;SPS30;72009;51.392;10.234;2024-01-25T00:25:14;10.17;8.97;6.79;3.83;31.01;30.88;30.32;27.34;19.52;0.82
66879;SPS30;72009;51.392;10.234;2024-01-25T00:25:34;11.11;9.82;7.47;4.28;34.65;34.50;33.90;30.70;22.11;0.80
66879;SPS30;72009;51.392;10.234;2024-01-25T00:25:55;11.74;10.38;7.90;4.53;36.61;36.45;35.82;32.43;23.36;0.82
66879;SPS30;72009;51.392;10.234;2024-01-25T00:26:15;11.17;9.86;7.46;4.21;34.08;33.93;33.32;30.05;21.46;0.83
66879;SPS30;72009;51.392;10.234;2024-01-25T00:26:35;11.42;10.07;7.61;4.29;34.70;34.54;33.92;30.56;21.80;0.83
66879;SPS30;72009;51.392;10.234;2024-01-25T00:26:56;11.29;9.94;7.47;4.15;33.56;33.40;32.77;29.41;20.79;0.84
66879;SPS30;72009;51.392;10.234;2024-01-25T00:27:16;12.42;10.91;8.16;4.45;36.08;35.91;35.21;31.46;22.01;0.84
66879;SPS30;72009;51.392;10.234;2024-01-25T00:27:36;12.12;10.62;7.91;4.27;34.57;34.40;33.71;30.02;20.84;0.84
66879;SPS30;72009;51.392;10.234;2024-01-25T00:27:56;13.13;11.50;8.53;4.55;36.89;36.71;35.95;31.91;22.00;0.85
66879;SPS30;72009;51.392;10.234;2024-01-25T00:28:17;13.65;11.96;8.88;4.76;38.55;38.36;37.57;33.39;23.07;0.85
66879;SPS30;72009;51.392;10.234;2024-01-25T00:28:37;12.85;11.26;8.37;4.48;36.31;36.13;35.40;31.46;21.74;0.84
66879;SPS30;72009;51.392;10.234;2024-01-25T00:28:57;13.28;11.63;8.62;4.59;37.19;37.00;36.23;32.14;22.12;0.85
66879;SPS30;72009;51.392;10.234;2024-01-25T00:29:17;12.29;10.76;7.98;4.25;34.48;34.31;33.60;29.82;20.54;0.86
66879;SPS30;72009;51.392;10.234;2024-01-25T00:29:38;11.97;10.47;7.75;4.10;33.25;33.08;32.39;28.68;19.66;0.88
66879;SPS30;72009;51.392;10.234;2024-01-25T00:29:58;12.94;11.32;8.38;4.44;35.96;35.78;35.03;31.03;21.28;0.87
66879;SPS30;72009;51.392;10.234;2024-01-25T00:30:18;12.09;10.60;7.88;4.23;34.28;34.11;33.42;29.72;20.57;0.85
66879;SPS30;72009;51.392;10.234;2024-01-25T00:30:39;12.01;10.56;7.92;4.37;35.36;35.19;34.52;30.93;21.77;0.84
66879;SPS30;72009;51.392;10.234;2024-01-25T00:30:59;11.63;10.22;7.66;4.21;34.07;33.91;33.26;29.77;20.91;0.84
66879;SPS30;72009;51.392;10.234;2024-01-25T00:31:20;13.44;11.85;8.95;5.02;40.66;40.48;39.74;35.78;25.47;0.83
66879;SPS30;72009;51.392;10.234;2024-01-25T00:31:40;12.45;11.00;8.35;4.76;38.50;38.33;37.65;34.04;24.44;0.82
66879;SPS30;72009;51.392;10.234;2024-01-25T00:32:00;11.22;9.93;7.59;4.40;35.60;35.46;34.86;31.65;22.95;0.81
66879;SPS30;72009;51.392;10.234;2024-01-25T00:32:21;11.86;10.49;8.01;4.62;37.36;37.21;36.57;33.17;23.99;0.82
66879;SPS30;72009;51.392;10.234;2024-01-25T00:32:41;13.25;11.72;8.93;5.13;41.51;41.33;40.62;36.80;26.56;0.82
66879;SPS30;72009;51.392;10.234;2024-01-25T00:33:01;10.81;9.56;7.30;4.22;34.11;33.97;33.39;30.29;21.93;0.83
66879;SPS30;72009;51.392;10.234;2024-01-25T00:33:22;11.93;10.55;8.03;4.61;37.31;37.15;36.51;33.07;23.85;0.83
66879;SPS30;72009;51.392;10.234;2024-01-25T00:33:42;12.80;11.30;8.56;4.85;39.22;39.05;38.35;34.61;24.76;0.85
66879;SPS30;72009;51.392;10.234;2024-01-25T00:34:02;11.15;9.82;7.40;4.12;33.38;33.22;32.60;29.30;20.76;0.87
66879;SPS30;72009;51.392;10.234;2024-01-25T00:34:23;12.07;10.57;7.85;4.19;34.00;33.83;33.13;29.43;20.31;0.89
66879;SPS30;72009;51.392;10.234;2024-01-25T00:34:44;14.24;12.43;9.15;4.76;38.59;38.38;37.55;33.08;22.41;0.91
66879;SPS30;72009;51.392;10.234;2024-01-25T00:35:04;13.76;11.97;8.73;4.41;35.82;35.62;34.79;30.39;20.16;0.92
66879;SPS30;72009;51.392;10.234;2024-01-25T00:35:25;12.37;10.77;7.87;4.00;32.49;32.31;31.57;27.63;18.42;0.91
66879;SPS30;72009;51.392;10.234;2024-01-25T00:35:46;13.70;11.97;8.83;4.62;37.51;37.31;36.51;32.24;21.95;0.89
66879;SPS30;72009;51.392;10.234;2024-01-25T00:36:06;12.24;10.70;7.90;4.16;33.73;33.55;32.84;29.04;19.83;0.89
66879;SPS30;72009;51.392;10.234;2024-01-25T00:36:27;11.65;10.17;7.48;3.89;31.53;31.37;30.68;27.03;18.30;0.91
66879;SPS30;72009;51.392;10.234;2024-01-25T00:36:48;13.46;11.74;8.60;4.41;35.79;35.59;34.79;30.53;20.48;0.91
66879;SPS30;72009;51.392;10.234;2024-01-25T00:37:08;13.97;12.19;8.95;4.62;37.52;37.32;36.50;32.10;21.65;0.90
66879;SPS30;72009;51.392;10.234;2024-01-25T00:37:29;13.89;12.10;8.84;4.50;36.55;36.35;35.52;31.10;20.75;0.92
66879;SPS30;72009;51.392;10.234;2024-01-25T00:37:50;13.65;11.87;8.63;4.32;35.09;34.89;34.07;29.67;19.55;0.93
66879;SPS30;72009;51.392;10.234;2024-01-25T00:38:10;12.78;11.11;8.07;4.03;32.74;32.55;31.78;27.66;18.19;0.92
66879;SPS30;72009;51.392;10.234;2024-01-25T00:38:31;13.68;11.91;8.70;4.43;35.94;35.74;34.92;30.56;20.38;0.90
66879;SPS30;72009;51.392;10.234;2024-01-25T00:38:52;13.91;12.15;8.95;4.68;37.93;37.73;36.92;32.57;22.13;0.88
66879;SPS30;72009;51.392;10.234;2024-01-25T00:39:13;12.84;11.23;8.30;4.37;35.45;35.27;34.52;30.54;20.88;0.89
66879;SPS30;72009;51.392;10.234;2024-01-25T00:39:33;12.78;11.19;8.30;4.41;35.78;35.60;34.86;30.92;21.27;0.88
66879;SPS30;72009;51.392;10.234;2024-01-25T00:39:54;13.57;11.89;8.84;4.75;38.50;38.31;37.53;33.38;23.12;0.87
66879;SPS30;72009;51.392;10.234;2024-01-25T00:40:15;14.49;12.68;9.38;4.96;40.20;39.99;39.15;34.66;23.75;0.88
66879;SPS30;72009;51.392;10.234;2024-01-25T00:40:35;16.52;14.51;10.84;5.90;47.77;47.55;46.61;41.61;29.06;0.85
66879;SPS30;72009;51.392;10.234;2024-01-25T00:40:56;14.42;12.71;9.58;5.36;43.40;43.20;42.40;38.14;27.09;0.83
66879;SPS30;72009;51.392;10.234;2024-01-25T00:41:17;12.93;11.41;8.65;4.91;39.71;39.53;38.83;35.06;25.10;0.82
66879;SPS30;72009;51.392;10.234;2024-01-25T00:41:38;11.37;10.06;7.69;4.45;35.95;35.80;35.19;31.94;23.13;0.82
66879;SPS30;72009;51.392;10.234;2024-01-25T00:42:04;10.82;9.60;7.37;4.33;34.99;34.85;34.28;31.23;22.80;0.81
66879;SPS30;72009;51.392;10.234;2024-01-25T00:42:25;10.87;9.62;7.36;4.27;34.52;34.38;33.80;30.70;22.27;0.83
66879;SPS30;72009;51.392;10.234;2024-01-25T00:42:48;10.53;9.32;7.12;4.13;33.37;33.24;32.67;29.66;21.50;0.82
66879;SPS30;72009;51.392;10.234;2024-01-25T00:43:09;11.45;10.14;7.76;4.52;36.53;36.38;35.77;32.51;23.63;0.82
66879;SPS30;72009;51.392;10.234;2024-01-25T00:43:29;11.39;10.07;7.68;4.43;35.81;35.66;35.04;31.77;22.96;0.83
66879;SPS30;72009;51.392;10.234;2024-01-25T00:43:50;10.88;9.62;7.33;4.22;34.11;33.97;33.38;30.25;21.84;0.82
66879;SPS30;72009;51.392;10.234;2024-01-25T00:44:10;12.13;10.73;8.18;4.72;38.15;37.99;37.34;33.86;24.47;0.81
66879;SPS30;72009;51.392;10.234;2024-01-25T00:44:31;14.27;12.61;9.58;5.47;44.21;44.02;43.24;39.10;28.09;0.83
66879;SPS30;72009;51.392;10.234;2024-01-25T00:44:52;14.47;12.78;9.70;5.53;44.72;44.53;43.74;39.54;28.38;0.82
66879;SPS30;72009;51.392;10.234;2024-01-25T00:45:13;13.87;12.23;9.26;5.23;42.32;42.13;41.37;37.31;26.65;0.84
66879;SPS30;72009;51.392;10.234;2024-01-25T00:45:33;11.23;9.92;7.54;4.30;34.79;34.65;34.04;30.78;22.12;0.83
66879;SPS30;72009;51.392;10.234;2024-01-25T00:45:54;11.04;9.74;7.39;4.20;33.95;33.80;33.20;29.98;21.48;0.83
66879;SPS30;72009;51.392;10.234;2024-01-25T00:46:15;11.49;10.15;7.71;4.40;35.61;35.46;34.83;31.50;22.64;0.83
66879;SPS30;72009;51.392;10.234;2024-01-25T00:46:35;11.90;10.52;8.01;4.60;37.17;37.02;36.37;32.94;23.74;0.84
66879;SPS30;72009;51.392;10.234;2024-01-25T00:46:56;11.85;10.45;7.92;4.47;36.20;36.05;35.40;31.93;22.82;0.84
66879;SPS30;72009;51.392;10.234;2024-01-25T00:47:16;11.35;10.02;7.61;4.33;35.06;34.91;34.29;30.99;22.24;0.83
66879;SPS30;72009;51.392;10.234;2024-01-25T00:47:37;11.35;10.03;7.63;4.37;35.37;35.22;34.60;31.32;22.55;0.83
66879;SPS30;72009;51.392;10.234;2024-01-25T00:47:58;11.28;10.01;7.69;4.53;36.61;36.46;35.87;32.70;23.90;0.81
66879;SPS30;72009;51.392;10.234;2024-01-25T00:48:18;12.12;10.75;8.25;4.83;39.05;38.89;38.25;34.82;25.39;0.82
66879;SPS30;72009;51.392;10.234;2024-01-25T00:48:39;12.31;10.93;8.42;4.99;40.28;40.12;39.48;36.04;26.43;0.81
66879;SPS30;72009;51.392;10.234;2024-01-25T00:48:59;11.79;10.47;8.07;4.79;38.69;38.54;37.92;34.64;25.42;0.82
66879;SPS30;72009;51.392;10.234;2024-01-25T00:49:20;11.75;10.43;8.01;4.72;38.13;37.98;37.36;34.06;24.90;0.82
66879;SPS30;72009;51.392;10.234;2024-01-25T00:49:41;12.53;11.11;8.54;5.03;40.66;40.50;39.84;36.32;26.56;0.83
66879;SPS30;72009;51.392;10.234;2024-01-25T00:50:01;12.09;10.72;8.23;4.83;39.06;38.91;38.27;34.86;25.45;0.82
66879;SPS30;72009;51.392;10.234;2024-01-25T00:50:22;11.60;10.27;7.85;4.55;36.79;36.64;36.02;32.70;23.71;0.84
66879;SPS30;72009;51.392;10.234;2024-01-25T00:50:43;12.21;10.76;8.13;4.57;36.98;36.81;36.14;32.55;23.18;0.86
66879;SPS30;72009;51.392;10.234;2024-01-25T00:51:03;11.61;10.23;7.71;4.31;34.86;34.70;34.06;30.62;21.73;0.85
66879;SPS30;72009;51.392;10.234;2024-01-25T00:51:27;12.71;11.20;8.45;4.73;38.27;38.10;37.39;33.64;23.90;0.85
66879;SPS30;72009;51.392;10.234;2024-01-25T00:51:48;13.34;11.76;8.90;5.02;40.61;40.43;39.69;35.78;25.53;0.85
66879;SPS30;72009;51.392;10.234;2024-01-25T00:52:09;13.59;11.98;9.07;5.13;41.51;41.33;40.59;36.61;26.17;0.84
66879;SPS30;72009;51.392;10.234;2024-01-25T00:52:30;13.51;11.94;9.09;5.22;42.18;42.00;41.27;37.37;26.93;0.82
66879;SPS30;72009;51.392;10.234;2024-01-25T00:52:51;11.51;10.19;7.80;4.54;36.74;36.59;35.97;32.70;23.77;0.83
66879;SPS30;72009;51.392;10.234;2024-01-25T00:53:12;12.27;10.87;8.31;4.84;39.09;38.93;38.27;34.78;25.26;0.83
66879;SPS30;72009;51.392;10.234;2024-01-25T00:53:33;13.30;11.79;9.03;5.28;42.66;42.49;41.78;38.01;27.67;0.83
66879;SPS30;72009;51.392;10.234;2024-01-25T00:53:53;12.38;11.00;8.48;5.03;40.67;40.51;39.87;36.42;26.74;0.82
66879;SPS30;72009;51.392;10.234;2024-01-25T00:54:14;12.60;11.19;8.62;5.11;41.31;41.15;40.50;36.98;27.13;0.82
66879;SPS30;72009;51.392;10.234;2024-01-25T00:54:35;13.75;12.17;9.29;5.37;43.44;43.26;42.52;38.59;27.94;0.83
66879;SPS30;72009;51.392;10.234;2024-01-25T00:54:56;11.17;9.87;7.50;4.28;34.61;34.47;33.86;30.62;22.00;0.84
66879;SPS30;72009;51.392;10.234;2024-01-25T00:55:16;13.13;11.59;8.78;4.98;40.27;40.10;39.38;35.54;25.44;0.85
66879;SPS30;72009;51.392;10.234;2024-01-25T00:55:37;12.05;10.63;8.05;4.55;36.82;36.66;36.00;32.47;23.20;0.85
66879;SPS30;72009;51.392;10.234;2024-01-25T00:55:57;11.09;9.77;7.38;4.13;33.45;33.30;32.69;29.42;20.91;0.86
66879;SPS30;72009;51.392;10.234;2024-01-25T00:56:18;12.93;11.37;8.53;4.69;37.99;37.82;37.09;33.22;23.36;0.87
66879;SPS30;72009;51.392;10.234;2024-01-25T00:56:39;12.29;10.80;8.09;4.45;36.02;35.85;35.16;31.48;22.12;0.86
66879;SPS30;72009;51.392;10.234;2024-01-25T00:56:59;11.28;9.92;7.43;4.09;33.11;32.96;32.33;28.94;20.35;0.86
66879;SPS30;72009;51.392;10.234;2024-01-25T00:57:20;14.09;12.39;9.29;5.12;41.43;41.24;40.45;36.23;25.48;0.86
66879;SPS30;72009;51.392;10.234;2024-01-25T00:57:41;13.76;12.09;9.06;4.96;40.21;40.02;39.24;35.10;24.63;0.86
66879;SPS30;72009;51.392;10.234;2024-01-25T00:58:01;12.27;10.76;8.02;4.32;35.03;34.86;34.16;30.42;21.12;0.87
66879;SPS30;72009;51.392;10.234;2024-01-25T00:58:22;13.19;11.54;8.55;4.54;36.78;36.59;35.83;31.76;21.82;0.89
66879;SPS30;72009;51.392;10.234;2024-01-25T00:58:42;13.04;11.41;8.44;4.46;36.17;35.99;35.23;31.19;21.37;0.88
66879;SPS30;72009;51.392;10.234;2024-01-25T00:59:03;11.96;10.48;7.81;4.21;34.13;33.96;33.28;29.63;20.58;0.86
66879;SPS30;72009;51.392;10.234;2024-01-25T00:59:24;12.33;10.82;8.07;4.38;35.47;35.30;34.60;30.86;21.51;0.88
66879;SPS30;72009;51.392;10.234;2024-01-25T00:59:44;12.69;11.15;8.34;4.56;36.95;36.78;36.06;32.24;22.58;0.87
66879;SPS30;72009;51.392;10.234;2024-01-25T01:00:05;12.67;11.13;8.34;4.57;37.02;36.84;36.13;32.32;22.68;0.88
66879;SPS30;72009;51.392;10.234;2024-01-25T01:00:26;12.69;11.14;8.32;4.52;36.64;36.47;35.75;31.91;22.27;0.87
66879;SPS30;72009;51.392;10.234;2024-01-25T01:00:46;14.08;12.34;9.20;4.96;40.22;40.02;39.22;34.93;24.26;0.88
66879;SPS30;72009;51.392;10.234;2024-01-25T01:01:07;14.51;12.73;9.50;5.15;41.72;41.52;40.69;36.28;25.27;0.87
66879;SPS30;72009;51.392;10.234;2024-01-25T01:01:27;12.07;10.61;7.96;4.39;35.52;35.35;34.67;31.06;21.86;0.86
66879;SPS30;72009;51.392;10.234;2024-01-25T01:01:48;13.75;12.07;9.01;4.90;39.73;39.54;38.76;34.60;24.16;0.87
66879;SPS30;72009;51.392;10.234;2024-01-25T01:02:13;13.71;12.04;9.01;4.92;39.84;39.65;38.87;34.73;24.31;0.86
66879;SPS30;72009;51.392;10.234;2024-01-25T01:02:39;11.84;10.42;7.84;4.35;35.21;35.04;34.38;30.86;21.81;0.85
66879;SPS30;72009;51.392;10.234;2024-01-25T01:03:02;11.43;10.05;7.54;4.16;33.69;33.53;32.89;29.47;20.75;0.86
66879;SPS30;72009;51.392;10.234;2024-01-25T01:03:23;14.13;12.41;9.28;5.06;40.97;40.78;39.98;35.71;24.97;0.86
66879;SPS30;72009;51.392;10.234;2024-01-25T01:03:44;13.34;11.70;8.72;4.72;38.24;38.06;37.30;33.25;23.13;0.87
66879;SPS30;72009;51.392;10.234;2024-01-25T01:04:04;12.53;11.00;8.21;4.46;36.15;35.98;35.27;31.47;21.96;0.86
66879;SPS30;72009;51.392;10.234;2024-01-25T01:04:25;12.57;11.05;8.28;4.55;36.81;36.64;35.93;32.16;22.58;0.84
66879;SPS30;72009;51.392;10.234;2024-01-25T01:04:46;13.71;12.06;9.07;5.04;40.77;40.58;39.82;35.74;25.27;0.85
66879;SPS30;72009;51.392;10.234;2024-01-25T01:05:07;14.75;12.96;9.69;5.29;42.82;42.61;41.78;37.32;26.11;0.86
66879;SPS30;72009;51.392;10.234;2024-01-25T01:05:28;13.68;12.01;8.97;4.89;39.58;39.39;38.61;34.48;24.08;0.86
66879;SPS30;72009;51.392;10.234;2024-01-25T01:05:48;13.87;12.20;9.17;5.09;41.18;40.99;40.21;36.09;25.49;0.85
66879;SPS30;72009;51.392;10.234;2024-01-25T01:06:09;13.10;11.54;8.69;4.85;39.24;39.06;38.34;34.45;24.42;0.85
66879;SPS30;72009;51.392;10.234;2024-01-25T01:06:30;13.55;11.96;9.06;5.14;41.57;41.39;40.65;36.69;26.26;0.82
66879;SPS30;72009;51.392;10.234;2024-01-25T01:06:50;13.99;12.37;9.43;5.44;43.95;43.77;43.02;39.00;28.18;0.81
66879;SPS30;72009;51.392;10.234;2024-01-25T01:07:11;12.14;10.75;8.22;4.78;38.63;38.48;37.83;34.37;24.95;0.81
66879;SPS30;72009;51.392;10.234;2024-01-25T01:07:31;12.95;11.49;8.84;5.21;42.10;41.93;41.25;37.62;27.52;0.80
66879;SPS30;72009;51.392;10.234;2024-01-25T01:07:52;12.46;11.06;8.50;5.01;40.51;40.35;39.70;36.20;26.48;0.81
66879;SPS30;72009;51.392;10.234;2024-01-25T01:08:13;11.19;9.94;7.67;4.55;36.79;36.65;36.06;32.94;24.19;0.80
66879;SPS30;72009;51.392;10.234;2024-01-25T01:08:33;10.98;9.76;7.54;4.50;36.38;36.24;35.68;32.63;24.03;0.79
66879;SPS30;72009;51.392;10.234;2024-01-25T01:08:54;12.93;11.50;8.89;5.31;42.92;42.75;42.08;38.51;28.37;0.80
66879;SPS30;72009;51.392;10.234;2024-01-25T01:09:14;13.01;11.52;8.81;5.12;41.40;41.23;40.54;36.83;26.74;0.83
66879;SPS30;72009;51.392;10.234;2024-01-25T01:09:35;11.98;10.56;7.98;4.49;36.35;36.19;35.53;32.01;22.82;0.84
66879;SPS30;72009;51.392;10.234;2024-01-25T01:09:55;11.10;9.77;7.35;4.09;33.09;32.94;32.32;29.03;20.54;0.84
66879;SPS30;72009;51.392;10.234;2024-01-25T01:10:15;12.70;11.19;8.43;4.71;38.10;37.93;37.23;33.47;23.74;0.83
66879;SPS30;72009;51.392;10.234;2024-01-25T01:10:35;13.72;12.08;9.09;5.05;40.89;40.71;39.94;35.86;25.37;0.84
66879;SPS30;72009;51.392;10.234;2024-01-25T01:10:56;12.85;11.35;8.62;4.92;39.79;39.62;38.92;35.19;25.28;0.81
66879;SPS30;72009;51.392;10.234;2024-01-25T01:11:16;11.75;10.38;7.89;4.51;36.51;36.35;35.71;32.31;23.24;0.82
66879;SPS30;72009;51.392;10.234;2024-01-25T01:11:37;14.61;12.93;9.86;5.69;46.02;45.83;45.04;40.85;29.54;0.81
66879;SPS30;72009;51.392;10.234;2024-01-25T01:11:57;13.06;11.54;8.79;5.05;40.85;40.68;39.97;36.21;26.12;0.81
66879;SPS30;72009;51.392;10.234;2024-01-25T01:12:19;11.89;10.52;8.03;4.65;37.59;37.43;36.79;33.39;24.18;0.80
66879;SPS30;72009;51.392;10.234;2024-01-25T01:12:39;13.44;11.87;9.02;5.14;41.59;41.41;40.68;36.78;26.42;0.82
66879;SPS30;72009;51.392;10.234;2024-01-25T01:12:59;14.53;12.82;9.72;5.51;44.58;44.39;43.59;39.35;28.17;0.81
66879;SPS30;72009;51.392;10.234;2024-01-25T01:13:19;13.97;12.34;9.38;5.36;43.36;43.18;42.42;38.37;27.59;0.81
66879;SPS30;72009;51.392;10.234;2024-01-25T01:13:40;13.23;11.68;8.86;5.03;40.65;40.48;39.75;35.89;25.71;0.82
66879;SPS30;72009;51.392;10.234;2024-01-25T01:14:00;12.12;10.71;8.16;4.68;37.86;37.70;37.05;33.56;24.19;0.81
66879;SPS30;72009;51.392;10.234;2024-01-25T01:14:20;12.18;10.78;8.25;4.80;38.77;38.61;37.96;34.49;25.04;0.80
66879;SPS30;72009;51.392;10.234;2024-01-25T01:14:41;11.90;10.54;8.07;4.70;37.95;37.80;37.16;33.77;24.53;0.80
66879;SPS30;72009;51.392;10.234;2024-01-25T01:15:01;12.12;10.78;8.34;4.99;40.31;40.15;39.53;36.18;26.67;0.78